METAR Analyzer

一覧表示

Hello, Guest. (Login)

ZBAA/PEK  -  北京首都

観測日時
2021-11-28 21:00 (UTC) (16分前)
気温
2
露点
0
湿数
2
相対湿度
86.6%
QNH
1027hPa
推定現地気圧
1022.8hPa
推定海面気圧
1027.3hPa
体感温度
-6.7
(無風時)
5.9
HI
0.5
気温前日比
±0
体感温度前日比
-3.6
HI前日比
±0
水平視程
2800m
鉛直視程
データなし
雲底高度
データなし
V/I
判定不可
RVR
No RVR data
卓越風
2m/s from 330°
ガスト
No gust
降水
報告なし
その他の天気
もや / NSC
報告なし

ZBAA 282100Z 33002MPS 2800 BR NSC 02/00 Q1027 NOSIG

ZSPD/PVG  -  上海浦東

観測日時
2021-11-28 21:00 (UTC) (16分前)
気温
16
露点
15
湿数
1
相対湿度
93.8%
QNH
1024hPa
推定現地気圧
1023.5hPa
推定海面気圧
1024.0hPa
体感温度
10.2
(無風時)
17.9
HI
16.1
気温前日比
+2
体感温度前日比
+3.8
HI前日比
+2.6
水平視程
>10000m
鉛直視程
データなし
雲底高度
No dense clouds
V/I
VMC (VFR)
RVR
No RVR data
卓越風
2m/s from VRB
ガスト
No gust
降水
報告なし
その他の天気
報告なし
報告なし

ZSPD 282100Z VRB02MPS CAVOK 16/15 Q1024 NOSIG

ZSSS/SHA  -  上海虹橋

観測日時
2021-11-28 21:00 (UTC) (16分前)
気温
15
露点
13
湿数
2
相対湿度
87.8%
QNH
1025hPa
推定現地気圧
1024.6hPa
推定海面気圧
1025.0hPa
体感温度
9
(無風時)
16.9
HI
14.8
気温前日比
+1
体感温度前日比
-1.2
HI前日比
+1.7
水平視程
>10000m
鉛直視程
データなし
雲底高度
2300ft AGL
V/I
VMC (VFR)
RVR
No RVR data
卓越風
2m/s from 10°
ガスト
No gust
降水
報告なし
その他の天気
報告なし
隙間のある雲 @ 2300ft AGL

ZSSS 282100Z 01002MPS 9999 BKN023 15/13 Q1025 NOSIG

ZSAM/XMN  -  アモイ/廈門高崎

観測日時
2021-11-28 21:00 (UTC) (16分前)
気温
21
露点
16
湿数
5
相対湿度
73.1%
QNH
1018hPa
推定現地気圧
1015.8hPa
推定海面気圧
1017.9hPa
体感温度
15.9
(無風時)
21.4
HI
21.1
気温前日比
+1
体感温度前日比
+4.2
HI前日比
+1.3
水平視程
>10000m
鉛直視程
データなし
雲底高度
3000ft AGL
V/I
VMC (VFR)
RVR
No RVR data
卓越風
2m/s from 340°
ガスト
No gust
降水
報告なし
その他の天気
報告なし
隙間のある雲 @ 3000ft AGL

ZSAM 282100Z 34002MPS 9999 BKN030 21/16 Q1018 NOSIG

ZGSZ/SZX  -  深圳宝安

観測日時
2021-11-28 21:00 (UTC) (16分前)
気温
18
露点
12
湿数
6
相対湿度
67.9%
QNH
1018hPa
推定現地気圧
1017.5hPa
推定海面気圧
1018.0hPa
体感温度
11.2
(無風時)
18.8
HI
17.6
気温前日比
-1
体感温度前日比
-0.1
HI前日比
-0.7
水平視程
>10000m
鉛直視程
データなし
雲底高度
No dense clouds
V/I
VMC (VFR)
RVR
No RVR data
卓越風
3m/s from 10°
ガスト
No gust
降水
報告なし
その他の天気
報告なし
報告なし

ZGSZ 282100Z 01003MPS CAVOK 18/12 Q1018 NOSIG

VHHH/HKG  -  香港

観測日時
2021-11-28 21:00 (UTC) (16分前)
気温
19
露点
13
湿数
6
相対湿度
68.2%
QNH
1018hPa
推定現地気圧
1016.9hPa
推定海面気圧
1018.0hPa
体感温度
11.1
(無風時)
19.6
HI
18.7
気温前日比
±0
体感温度前日比
-0.8
HI前日比
-0.2
水平視程
>10000m
鉛直視程
データなし
雲底高度
No dense clouds
V/I
VMC (VFR)
RVR
No RVR data
卓越風
9kt from 60° (30° ~ 90°)
ガスト
No gust
降水
報告なし
その他の天気
報告なし
報告なし

VHHH 282100Z 06009KT 030V090 CAVOK 19/13 Q1018 NOSIG

RCTP/TPE  -  台湾桃園

観測日時
2021-11-28 21:00 (UTC) (16分前)
気温
22
露点
18
湿数
4
相対湿度
78.1%
QNH
1015.2hPa
推定現地気圧
1011.2hPa
推定海面気圧
1015.1hPa
体感温度
14.4
(無風時)
22.4
HI
22.3
気温前日比
+1
体感温度前日比
+2.1
HI前日比
+1
水平視程
>10000m
鉛直視程
データなし
雲底高度
No dense clouds
V/I
VMC (VFR)
RVR
No RVR data
卓越風
12kt from 60°
ガスト
No gust
降水
報告なし
その他の天気
報告なし
少しの雲 @ 1500ft AGL / 散在する雲 @ 12000ft AGL

RCTP 282100Z 06012KT 9999 FEW015 SCT120 22/18 Q1015 NOSIG RMK A2998

RCSS/TSA  -  台北松山

観測日時
2021-11-28 20:00 (UTC) (76分前)
気温
22
露点
20
湿数
2
相対湿度
88.4%
QNH
1016.9hPa
推定現地気圧
1016.3hPa
推定海面気圧
1016.9hPa
体感温度
15.1
(無風時)
22.9
HI
22.6
気温前日比
+2
体感温度前日比
+3.2
HI前日比
+1.9
水平視程
>10000m
鉛直視程
データなし
雲底高度
10000ft AGL
V/I
VMC (VFR)
RVR
No RVR data
卓越風
10kt from 80°
ガスト
No gust
降水
報告なし
その他の天気
報告なし
少しの雲 @ 1800ft AGL / 隙間のある雲 @ 10000ft AGL

RCSS 282000Z 08010KT 9999 FEW018 BKN100 22/20 Q1016 NOSIG RMK A3003

RCKH/KHH  -  高雄

観測日時
2021-11-28 20:00 (UTC) (76分前)
気温
22
露点
19
湿数
3
相対湿度
83.1%
QNH
1014.2hPa
推定現地気圧
1013.1hPa
推定海面気圧
1014.2hPa
体感温度
16.3
(無風時)
22.7
HI
22.4
気温前日比
±0
体感温度前日比
-2.9
HI前日比
-0.3
水平視程
4500m
鉛直視程
データなし
雲底高度
4000ft AGL
V/I
SVMC (SVFR)
RVR
No RVR data
卓越風
6kt from 350°
ガスト
No gust
降水
弱い霧雨
その他の天気
報告なし
少しの雲 @ 1000ft AGL / 隙間のある雲 @ 4000ft AGL / 隙間のある雲 @ 6000ft AGL

RCKH 282000Z 35006KT 4500 -DZ FEW010 BKN040 BKN060 22/19 Q1014 NOSIG RMK A2995

62.6msec